Time;durP1;ratioP1;P1;durP2;ratioP2;P2;SDS_P1;SDS_P2;PMS_P1;PMS_P2;Temp;Humidity;BMP_temperature;BMP_pressure;BME280_temperature;BME280_humidity;BME280_pressure;Samples;Min_cycle;Max_cycle;Signal;HPM_P1;HPM_P2
2022/05/01 00:00:14;;;;;;;24.82;12.30;;;;;;;8.12;59.07;100125.09;1742351;82;21026;-43
2022/05/01 00:02:40;;;;;;;26.50;13.08;;;;;;;8.10;59.09;100129.22;1741786;82;21135;-43
2022/05/01 00:05:08;;;;;;;27.10;12.35;;;;;;;8.09;59.20;100131.67;1741771;82;21044;-44
2022/05/01 00:07:34;;;;;;;32.15;14.47;;;;;;;8.05;59.16;100129.39;1741809;82;20934;-44
2022/05/01 00:10:06;;;;;;;31.02;13.53;;;;;;;8.01;59.20;100133.86;1741832;82;20941;-44
2022/05/01 00:12:33;;;;;;;29.00;14.20;;;;;;;7.89;59.23;100118.91;1742080;82;21018;-43
2022/05/01 00:15:00;;;;;;;35.28;16.67;;;;;;;7.91;59.39;100128.25;1741877;82;21658;-44
2022/05/01 00:17:26;;;;;;;36.70;16.48;;;;;;;7.87;59.46;100134.06;1742032;82;20910;-44
2022/05/01 00:19:54;;;;;;;37.90;17.95;;;;;;;7.81;59.71;100136.70;1742007;82;20986;-44
2022/05/01 00:22:23;;;;;;;38.05;17.85;;;;;;;7.77;59.92;100138.45;1742007;82;21020;-43
2022/05/01 00:24:51;;;;;;;36.83;17.48;;;;;;;7.71;60.19;100132.44;1742079;82;21057;-44
2022/05/01 00:27:17;;;;;;;34.15;17.55;;;;;;;7.66;60.44;100140.70;1742247;82;21785;-43
2022/05/01 00:29:44;;;;;;;31.55;15.85;;;;;;;7.62;60.83;100137.06;1741913;82;21004;-43
2022/05/01 00:32:11;;;;;;;29.02;13.95;;;;;;;7.59;61.56;100143.66;1741895;82;20990;-43
2022/05/01 00:37:23;;;;;;;42.73;20.30;;;;;;;7.68;62.29;100147.14;1741815;82;21472;-43
2022/05/01 00:39:49;;;;;;;47.20;20.60;;;;;;;7.74;62.22;100144.52;1741861;82;21177;-43
2022/05/01 00:42:17;;;;;;;37.70;18.92;;;;;;;7.73;62.15;100145.62;1741953;82;20965;-43
2022/05/01 00:44:44;;;;;;;38.50;17.92;;;;;;;7.72;62.00;100139.98;1741820;82;20933;-43
2022/05/01 00:47:11;;;;;;;35.95;18.25;;;;;;;7.72;61.82;100142.13;1741989;82;20946;-44
2022/05/01 00:49:39;;;;;;;45.38;19.02;;;;;;;7.73;61.80;100142.92;1741790;82;21053;-44
2022/05/01 00:52:09;;;;;;;39.15;18.40;;;;;;;7.72;61.75;100138.63;1741982;82;21098;-43
2022/05/01 00:54:39;;;;;;;39.90;17.62;;;;;;;7.70;61.62;100144.34;1742175;82;21000;-44
2022/05/01 00:57:06;;;;;;;32.93;13.70;;;;;;;7.68;61.72;100146.58;1741786;82;21029;-44
2022/05/01 00:59:36;;;;;;;34.83;17.33;;;;;;;7.66;61.53;100146.66;1742262;82;21001;-44
2022/05/01 01:02:05;;;;;;;35.78;17.20;;;;;;;7.60;61.35;100147.38;1741956;82;21001;-43
2022/05/01 01:04:32;;;;;;;34.78;16.77;;;;;;;7.57;61.47;100147.23;1741937;82;21249;-44
2022/05/01 01:06:58;;;;;;;38.28;16.55;;;;;;;7.53;61.47;100147.08;1741959;82;21544;-43
2022/05/01 01:09:25;;;;;;;32.80;15.28;;;;;;;7.50;61.46;100141.54;1741931;82;20977;-44
2022/05/01 01:14:42;;;;;;;30.75;15.55;;;;;;;7.39;61.52;100140.52;1677491;85;21320;-43
2022/05/01 01:17:10;;;;;;;34.78;15.08;;;;;;;7.34;61.61;100137.98;1677596;85;21530;-43
2022/05/01 01:19:37;;;;;;;36.63;16.07;;;;;;;7.32;61.81;100137.49;1701037;82;21547;-43
2022/05/01 01:22:06;;;;;;;38.40;17.12;;;;;;;7.27;62.16;100133.61;1742170;82;21016;-43
2022/05/01 01:24:39;;;;;;;33.63;16.75;;;;;;;7.26;61.98;100135.30;1742118;82;21578;-44
2022/05/01 01:27:06;;;;;;;35.35;16.07;;;;;;;7.23;61.83;100139.41;1742368;82;21081;-44
2022/05/01 01:32:19;;;;;;;34.43;15.72;;;;;;;7.24;61.77;100144.25;1742139;82;21017;-44
2022/05/01 01:34:46;;;;;;;33.65;15.15;;;;;;;7.28;61.62;100143.30;1742115;82;20937;-44
2022/05/01 01:37:13;;;;;;;42.15;16.57;;;;;;;7.31;61.61;100139.95;1742093;82;21524;-43
2022/05/01 01:39:41;;;;;;;35.48;16.60;;;;;;;7.33;61.59;100142.33;1741826;82;21045;-44
2022/05/01 01:42:09;;;;;;;34.38;16.87;;;;;;;7.34;61.59;100144.72;1741969;82;21234;-43
2022/05/01 01:44:37;;;;;;;35.83;17.15;;;;;;;7.36;61.31;100144.39;1741679;82;20977;-44
2022/05/01 01:47:05;;;;;;;33.78;15.40;;;;;;;7.37;60.95;100145.42;1742170;82;20949;-44
2022/05/01 01:49:33;;;;;;;35.50;15.72;;;;;;;7.37;60.65;100147.33;1741891;82;21504;-44
2022/05/01 01:52:00;;;;;;;33.95;16.87;;;;;;;7.36;60.46;100155.97;1745363;82;21599;-44
2022/05/01 01:54:27;;;;;;;33.42;16.82;;;;;;;7.34;60.40;100149.32;1741689;82;21256;-43
2022/05/01 01:56:55;;;;;;;37.00;16.73;;;;;;;7.30;60.84;100147.83;1749555;82;21008;-43
2022/05/01 01:59:22;;;;;;;28.27;16.52;;;;;;;7.27;61.12;100149.79;1749930;82;20973;-43
2022/05/01 02:01:49;;;;;;;31.77;16.82;;;;;;;7.22;61.10;100145.91;1750091;82;20960;-43
2022/05/01 02:04:17;;;;;;;35.28;16.20;;;;;;;7.18;61.41;100157.64;1750080;82;21044;-43
2022/05/01 02:06:44;;;;;;;33.00;16.37;;;;;;;7.14;61.52;100162.09;1749915;82;21148;-43
2022/05/01 02:09:12;;;;;;;36.25;16.12;;;;;;;7.10;61.56;100159.79;1749960;82;21010;-43
2022/05/01 02:11:41;;;;;;;33.05;15.20;;;;;;;7.09;61.76;100156.85;1750092;82;21483;-43
2022/05/01 02:14:10;;;;;;;32.33;16.35;;;;;;;7.06;61.86;100161.54;1750023;82;21044;-44
2022/05/01 02:16:37;;;;;;;26.65;15.00;;;;;;;7.01;62.10;100163.84;1750246;82;21057;-43
2022/05/01 02:19:03;;;;;;;31.77;14.05;;;;;;;6.97;62.41;100161.53;1750115;82;21811;-43
2022/05/01 02:21:36;;;;;;;29.48;14.28;;;;;;;6.97;62.63;100158.84;1749981;82;21036;-43
2022/05/01 02:24:07;;;;;;;26.95;14.35;;;;;;;7.03;62.62;100160.25;1750015;82;21452;-44
2022/05/01 02:26:35;;;;;;;31.73;14.53;;;;;;;7.10;62.40;100167.33;1749440;81;21606;-43
2022/05/01 02:29:05;;;;;;;32.38;15.45;;;;;;;7.11;62.21;100158.14;1750094;82;21048;-44
2022/05/01 02:31:32;;;;;;;33.85;15.45;;;;;;;7.12;62.06;100170.48;1750188;82;21807;-44
2022/05/01 02:33:59;;;;;;;35.60;14.65;;;;;;;7.12;61.94;100173.18;1749970;82;20996;-43
2022/05/01 02:36:26;;;;;;;26.80;13.58;;;;;;;7.08;61.84;100169.53;1749884;82;21039;-43
2022/05/01 02:38:53;;;;;;;26.95;14.30;;;;;;;7.06;61.74;100166.37;1750053;82;21065;-43
2022/05/01 02:41:20;;;;;;;35.28;15.43;;;;;;;7.03;61.62;100164.84;1750124;82;21088;-43
2022/05/01 02:43:47;;;;;;;31.75;15.25;;;;;;;7.00;61.74;100170.33;1750024;82;21141;-43
2022/05/01 02:46:15;;;;;;;34.45;16.48;;;;;;;6.95;61.93;100175.87;1750033;82;20977;-44
2022/05/01 02:48:42;;;;;;;33.95;16.70;;;;;;;6.88;62.10;100174.98;1750066;82;21033;-43
2022/05/01 02:51:10;;;;;;;35.65;17.23;;;;;;;6.83;62.19;100174.33;1750052;81;21018;-43
2022/05/01 02:53:36;;;;;;;36.68;16.75;;;;;;;6.78;62.19;100174.48;1749985;82;21558;-43
2022/05/01 02:56:04;;;;;;;36.50;17.75;;;;;;;6.72;62.28;100179.80;1749914;82;21264;-44
2022/05/01 02:58:31;;;;;;;37.05;17.55;;;;;;;6.68;62.28;100174.22;1750138;82;20941;-44
2022/05/01 03:00:58;;;;;;;31.68;16.50;;;;;;;6.64;62.35;100171.12;1745500;82;21016;-42
2022/05/01 03:03:24;;;;;;;33.78;15.95;;;;;;;6.63;62.56;100171.70;1749889;82;21043;-40
2022/05/01 03:05:52;;;;;;;31.85;15.32;;;;;;;6.66;62.76;100175.10;1749756;82;21009;-42
2022/05/01 03:08:20;;;;;;;33.13;16.23;;;;;;;6.71;62.86;100180.34;1745264;82;21105;-43
2022/05/01 03:10:48;;;;;;;32.60;17.00;;;;;;;6.76;62.65;100181.55;1749640;82;21555;-42
2022/05/01 03:13:15;;;;;;;37.42;17.37;;;;;;;6.76;62.57;100179.41;1749762;82;21049;-42
2022/05/01 03:15:42;;;;;;;33.73;16.73;;;;;;;6.75;62.36;100177.26;1750026;82;21080;-42
2022/05/01 03:23:41;;;;;;;49.42;21.60;;;;;;;6.74;62.04;100188.34;1749918;82;21041;-43
2022/05/01 03:26:07;;;;;;;43.60;20.60;;;;;;;6.67;61.85;100190.17;1746160;80;21001;-43
2022/05/01 03:28:34;;;;;;;42.17;19.02;;;;;;;6.59;61.87;100196.30;1743173;82;21592;-42
2022/05/01 03:31:03;;;;;;;39.23;18.27;;;;;;;6.53;62.09;100198.34;1743300;82;21021;-42
2022/05/01 03:33:31;;;;;;;33.65;17.77;;;;;;;6.50;62.38;100193.59;1714301;82;21776;-42
2022/05/01 03:35:58;;;;;;;32.58;17.77;;;;;;;6.46;62.75;100189.94;1743077;82;21510;-42
2022/05/01 03:38:24;;;;;;;33.13;16.48;;;;;;;6.49;62.85;100193.34;1743341;82;21041;-39
2022/05/01 03:40:52;;;;;;;33.60;16.17;;;;;;;6.58;62.98;100189.35;1743227;82;21373;-42
2022/05/01 03:43:19;;;;;;;39.10;17.27;;;;;;;6.71;63.04;100190.33;1743522;82;21033;-42
2022/05/01 03:45:46;;;;;;;32.60;17.80;;;;;;;6.82;63.06;100195.12;1743287;82;21904;-42
2022/05/01 03:48:12;;;;;;;34.20;17.52;;;;;;;6.90;63.05;100187.59;1743487;82;21570;-42
2022/05/01 03:50:40;;;;;;;35.40;17.30;;;;;;;7.01;63.00;100192.14;1743446;82;21530;-42
2022/05/01 03:53:07;;;;;;;32.35;17.37;;;;;;;7.12;63.12;100192.61;1743259;82;21041;-42
2022/05/01 03:55:36;;;;;;;36.23;18.32;;;;;;;7.20;62.98;100198.03;1742180;82;21555;-42
2022/05/01 03:58:04;;;;;;;36.53;18.42;;;;;;;7.28;62.71;100197.78;1735079;82;21213;-43
2022/05/01 04:00:31;;;;;;;35.73;17.75;;;;;;;7.35;62.63;100190.83;1731288;82;21001;-42
2022/05/01 04:02:57;;;;;;;40.25;18.98;;;;;;;7.43;62.46;100187.32;1735020;82;21033;-42
2022/05/01 04:05:24;;;;;;;37.65;19.20;;;;;;;7.52;62.59;100189.21;1735049;82;21025;-39
2022/05/01 04:07:51;;;;;;;29.75;16.67;;;;;;;7.61;62.49;100187.30;1734927;82;20918;-42
2022/05/01 04:11:25;;;;;;;34.70;16.27;;;;;;;7.78;62.12;100188.08;1809413;78;22655;-42
2022/05/01 04:13:54;;;;;;;32.42;16.45;;;;;;;7.80;62.09;100193.94;1788083;80;21511;-43
2022/05/01 04:16:20;;;;;;;31.97;15.08;;;;;;;7.91;62.33;100201.15;1787821;80;21252;-43
2022/05/01 04:18:47;;;;;;;27.20;13.30;;;;;;;7.98;62.09;100204.16;1787878;80;20961;-43
2022/05/01 04:21:13;;;;;;;29.37;14.47;;;;;;;8.07;61.88;100204.14;1787857;80;21011;-43
2022/05/01 04:23:40;;;;;;;29.95;12.50;;;;;;;8.13;61.61;100204.98;1787807;80;21020;-43
2022/05/01 04:26:07;;;;;;;26.93;12.80;;;;;;;8.20;61.37;100209.89;1787942;80;20913;-43
2022/05/01 04:28:35;;;;;;;29.52;12.53;;;;;;;8.26;61.29;100204.00;1787840;80;21152;-43
2022/05/01 04:31:01;;;;;;;26.90;12.65;;;;;;;8.34;61.50;100202.96;1788012;80;21475;-43
2022/05/01 04:33:28;;;;;;;26.77;13.53;;;;;;;8.43;61.30;100207.77;1787814;80;20968;-42
2022/05/01 04:35:56;;;;;;;21.65;11.90;;;;;;;8.53;60.96;100214.96;1787603;80;21370;-43
2022/05/01 04:38:24;;;;;;;24.45;11.55;;;;;;;8.63;61.04;100210.55;1787871;80;21048;-43
2022/05/01 04:40:54;;;;;;;17.30;8.95;;;;;;;8.75;61.29;100218.53;1788280;80;21054;-43
2022/05/01 04:43:26;;;;;;;20.05;9.20;;;;;;;8.87;61.21;100214.55;1724923;83;21512;-43
2022/05/01 04:45:54;;;;;;;15.25;8.83;;;;;;;9.01;60.81;100218.60;1725512;83;21524;-43
2022/05/01 04:48:24;;;;;;;17.27;9.00;;;;;;;9.18;60.71;100215.56;1748243;82;21512;-44
2022/05/01 04:50:52;;;;;;;20.77;10.03;;;;;;;9.31;60.46;100213.16;1743497;82;21032;-44
2022/05/01 04:53:20;;;;;;;22.15;10.15;;;;;;;9.44;59.91;100212.88;1723839;83;21127;-44
2022/05/01 04:55:49;;;;;;;22.95;10.82;;;;;;;9.57;59.59;100211.05;1748167;82;20958;-43
2022/05/01 04:58:16;;;;;;;21.68;9.58;;;;;;;9.66;59.04;100215.81;1725874;83;21076;-44
2022/05/01 05:00:43;;;;;;;23.90;9.48;;;;;;;9.74;59.13;100217.64;1755435;81;20976;-43
2022/05/01 05:03:12;;;;;;;20.48;9.63;;;;;;;9.82;59.37;100213.30;1755464;81;21120;-43
2022/05/01 05:05:39;;;;;;;16.32;9.33;;;;;;;9.89;59.18;100212.97;1755378;81;21236;-43
2022/05/01 05:10:52;;;;;;;21.07;10.45;;;;;;;10.07;59.03;100208.74;1735415;81;20977;-43
2022/05/01 05:13:26;;;;;;;16.97;9.03;;;;;;;10.15;58.35;100211.91;1725532;83;20984;-42
2022/05/01 05:15:53;;;;;;;21.55;9.48;;;;;;;10.24;57.99;100213.43;1725082;83;21048;-42
2022/05/01 05:18:20;;;;;;;16.87;8.00;;;;;;;10.35;58.01;100210.52;1725307;83;21105;-42
2022/05/01 05:20:47;;;;;;;16.07;7.40;;;;;;;10.46;57.48;100216.27;1724837;83;21500;-42
2022/05/01 05:23:14;;;;;;;11.10;6.47;;;;;;;10.57;56.42;100210.64;1755789;81;21008;-42
2022/05/01 05:25:42;;;;;;;10.60;6.17;;;;;;;10.68;55.28;100212.34;1755668;81;21338;-42
2022/05/01 05:28:10;;;;;;;8.95;5.15;;;;;;;10.80;54.02;100211.77;1755960;81;21495;-42
2022/05/01 05:30:37;;;;;;;10.82;4.92;;;;;;;10.92;53.13;100211.54;1755689;81;21170;-42
2022/05/01 05:33:04;;;;;;;8.13;4.72;;;;;;;11.04;52.02;100208.23;1755802;81;21035;-42
2022/05/01 05:35:32;;;;;;;7.83;4.37;;;;;;;11.17;51.27;100209.02;1755618;81;21019;-42
2022/05/01 05:37:59;;;;;;;9.33;4.70;;;;;;;11.28;50.08;100200.61;1755706;81;21356;-42
2022/05/01 05:40:26;;;;;;;8.78;4.50;;;;;;;11.41;49.71;100208.17;1755716;81;21068;-41
2022/05/01 05:42:54;;;;;;;9.30;5.60;;;;;;;11.54;48.77;100205.63;1755777;81;21000;-44
2022/05/01 05:45:21;;;;;;;9.40;4.90;;;;;;;11.66;48.40;100206.39;1755815;81;20934;-44
2022/05/01 05:47:48;;;;;;;10.13;5.37;;;;;;;11.81;47.04;100210.33;1755623;81;21049;-44
2022/05/01 05:50:15;;;;;;;8.03;5.30;;;;;;;11.94;46.38;100202.33;1755671;81;20968;-44
2022/05/01 05:52:43;;;;;;;9.03;4.90;;;;;;;12.06;46.33;100201.45;1755826;81;21809;-44
2022/05/01 05:55:10;;;;;;;8.13;4.05;;;;;;;12.17;46.14;100203.89;1752229;81;21240;-43
2022/05/01 05:57:37;;;;;;;8.55;4.22;;;;;;;12.31;46.54;100208.89;1751160;82;21035;-43
2022/05/01 06:00:06;;;;;;;9.05;4.45;;;;;;;12.41;45.90;100201.01;1751332;82;20965;-44
2022/05/01 06:02:35;;;;;;;5.67;4.00;;;;;;;12.52;45.19;100201.27;1750966;82;21520;-44
2022/05/01 06:05:01;;;;;;;6.92;3.65;;;;;;;12.66;44.60;100210.34;1751260;82;21021;-44
2022/05/01 06:07:28;;;;;;;9.35;4.50;;;;;;;12.75;43.88;100206.87;1746555;82;21932;-44
2022/05/01 06:09:56;;;;;;;8.53;5.08;;;;;;;12.84;44.09;100208.83;1750463;81;21081;-44
2022/05/01 06:12:23;;;;;;;10.00;4.70;;;;;;;12.95;44.26;100205.78;1764283;81;21489;-43
2022/05/01 06:14:50;;;;;;;7.60;4.25;;;;;;;13.02;43.73;100208.68;1773048;81;21034;-44
2022/05/01 06:17:17;;;;;;;8.70;5.20;;;;;;;13.07;42.44;100201.58;1773069;81;21004;-44
2022/05/01 06:19:44;;;;;;;9.55;5.10;;;;;;;13.14;42.04;100201.77;1772924;81;21246;-44
2022/05/01 06:22:11;;;;;;;8.00;4.50;;;;;;;13.19;41.99;100196.05;1773088;81;20939;-44
2022/05/01 06:24:39;;;;;;;8.78;4.22;;;;;;;13.28;41.33;100194.48;1773157;81;21086;-44
2022/05/01 06:27:07;;;;;;;6.35;4.08;;;;;;;13.36;40.83;100198.95;1773005;81;21280;-44
2022/05/01 06:29:35;;;;;;;7.05;4.25;;;;;;;13.41;40.34;100198.06;1773159;81;21030;-43
2022/05/01 06:32:02;;;;;;;8.85;4.80;;;;;;;13.47;40.34;100195.85;1773106;81;22051;-44
2022/05/01 06:34:29;;;;;;;10.98;5.97;;;;;;;13.55;40.36;100202.25;1773045;81;21509;-44
2022/05/01 06:36:57;;;;;;;10.23;5.12;;;;;;;13.67;40.50;100208.91;1773007;81;20983;-43
2022/05/01 06:39:23;;;;;;;10.58;5.60;;;;;;;13.75;40.07;100207.31;1773015;81;21407;-44
2022/05/01 06:41:50;;;;;;;9.43;5.97;;;;;;;13.86;40.23;100204.80;1772894;81;21097;-44
2022/05/01 06:44:17;;;;;;;13.68;6.20;;;;;;;13.94;39.89;100201.08;1773051;81;21173;-44
2022/05/01 06:46:45;;;;;;;12.63;6.85;;;;;;;13.99;40.02;100198.02;1773150;81;21003;-44
2022/05/01 06:49:12;;;;;;;11.83;6.60;;;;;;;14.05;39.83;100202.61;1773088;81;21035;-44
2022/05/01 06:51:40;;;;;;;13.43;6.67;;;;;;;14.12;39.73;100202.75;1773048;81;21476;-44
2022/05/01 06:54:08;;;;;;;10.10;6.15;;;;;;;14.14;40.14;100206.68;1773213;81;21003;-44
2022/05/01 06:56:35;;;;;;;10.72;5.75;;;;;;;14.23;40.29;100204.50;1773026;81;21200;-44
2022/05/01 06:59:03;;;;;;;9.80;4.85;;;;;;;14.33;39.71;100207.99;1773049;81;20970;-44
2022/05/01 07:01:30;;;;;;;10.85;5.45;;;;;;;14.42;39.54;100207.80;1772908;81;21029;-44
2022/05/01 07:03:56;;;;;;;9.25;5.20;;;;;;;14.53;38.59;100210.69;1772990;81;20963;-43
2022/05/01 07:06:23;;;;;;;10.88;5.70;;;;;;;14.64;38.74;100208.92;1773013;81;21066;-43
2022/05/01 07:08:51;;;;;;;9.00;4.83;;;;;;;14.73;38.33;100204.00;1773036;81;21517;-43
2022/05/01 07:11:19;;;;;;;11.97;5.45;;;;;;;14.82;38.09;100208.62;1777657;80;21504;-43
2022/05/01 07:13:47;;;;;;;9.85;4.58;;;;;;;14.92;37.76;100206.63;1781099;80;20982;-43
2022/05/01 07:16:13;;;;;;;8.20;4.10;;;;;;;15.04;38.03;100205.64;1781204;80;20958;-43
2022/05/01 07:18:40;;;;;;;5.10;3.33;;;;;;;15.21;37.56;100207.24;1781221;80;21531;-44
2022/05/01 07:21:09;;;;;;;7.75;3.90;;;;;;;15.42;37.76;100205.95;1781352;80;21540;-44
2022/05/01 07:23:35;;;;;;;6.08;3.62;;;;;;;15.60;36.72;100204.25;1781097;80;21498;-43
2022/05/01 07:26:04;;;;;;;5.97;3.50;;;;;;;15.74;36.79;100208.52;1781279;80;20947;-43
2022/05/01 07:28:35;;;;;;;8.98;3.98;;;;;;;15.87;35.78;100205.76;1781255;80;21353;-43
2022/05/01 07:31:03;;;;;;;6.40;3.80;;;;;;;16.01;35.24;100203.75;1781687;80;20891;-43
2022/05/01 07:33:30;;;;;;;6.72;3.62;;;;;;;16.07;34.94;100199.52;1781348;80;21315;-43
2022/05/01 07:35:58;;;;;;;6.10;2.70;;;;;;;16.21;35.70;100201.60;1781399;80;21496;-43
2022/05/01 07:38:25;;;;;;;4.20;2.55;;;;;;;16.40;33.88;100191.81;1781596;80;20974;-43
2022/05/01 07:40:51;;;;;;;4.05;2.33;;;;;;;16.49;32.78;100190.91;1781207;80;21050;-43
2022/05/01 07:43:18;;;;;;;4.20;2.40;;;;;;;16.48;32.50;100201.06;1781360;80;20997;-43
2022/05/01 07:45:45;;;;;;;3.22;2.30;;;;;;;16.50;31.65;100199.33;1781172;80;21155;-43
2022/05/01 07:48:11;;;;;;;2.98;1.90;;;;;;;16.46;31.34;100190.27;1781120;80;20939;-43
2022/05/01 07:50:39;;;;;;;4.72;2.02;;;;;;;16.50;31.67;100182.32;1781091;80;21576;-43
2022/05/01 07:53:05;;;;;;;4.72;2.35;;;;;;;16.66;32.03;100184.80;1781228;80;20938;-43
2022/05/01 07:55:32;;;;;;;5.80;2.25;;;;;;;16.84;31.94;100187.09;1781100;80;21077;-44
2022/05/01 07:57:59;;;;;;;5.78;2.87;;;;;;;16.93;31.38;100180.70;1781364;80;21145;-44
2022/05/01 08:00:26;;;;;;;4.92;2.42;;;;;;;16.91;31.60;100183.02;1781238;80;21500;-44
2022/05/01 08:05:39;;;;;;;5.28;2.35;;;;;;;16.89;31.06;100175.76;1705690;80;21504;-44
2022/05/01 08:08:07;;;;;;;5.90;2.72;;;;;;;16.82;32.00;100174.94;1781314;80;21005;-44
2022/05/01 08:10:33;;;;;;;5.33;2.50;;;;;;;16.70;31.87;100177.39;1781305;80;21203;-44
2022/05/01 08:13:00;;;;;;;4.45;2.45;;;;;;;16.62;31.83;100177.14;1781283;80;21454;-44
2022/05/01 08:15:27;;;;;;;3.70;2.33;;;;;;;16.57;32.19;100179.41;1776332;80;20935;-44
2022/05/01 08:21:04;;;;;;;3.77;2.50;;;;;;;16.54;32.79;100179.61;1781325;80;21062;-44
2022/05/01 08:23:09;;;;;;;4.25;2.55;;;;;;;16.54;33.42;100180.97;1781548;80;21132;-44
2022/05/01 08:25:39;;;;;;;3.95;2.52;;;;;;;16.54;33.85;100183.70;1781243;80;21010;-44
2022/05/01 08:28:07;;;;;;;5.13;2.53;;;;;;;16.49;34.50;100175.84;1781544;80;21026;-44
2022/05/01 08:30:35;;;;;;;3.83;2.15;;;;;;;16.41;34.69;100179.70;1749488;80;20977;-44
2022/05/01 08:33:04;;;;;;;5.05;2.52;;;;;;;16.38;33.79;100177.70;1781143;80;21003;-44
2022/05/01 08:35:31;;;;;;;3.72;2.37;;;;;;;16.42;33.61;100175.78;1781043;80;21238;-44
2022/05/01 08:37:58;;;;;;;2.92;1.85;;;;;;;16.43;33.55;100170.52;1781076;80;21515;-44
2022/05/01 08:40:26;;;;;;;3.17;2.20;;;;;;;16.48;32.80;100174.27;1781230;80;21038;-44
2022/05/01 08:42:55;;;;;;;5.72;2.50;;;;;;;16.46;33.33;100172.48;1781271;80;21006;-44
2022/05/01 08:45:25;;;;;;;4.08;2.00;;;;;;;16.47;33.14;100166.64;1781383;80;21542;-44
2022/05/01 08:48:13;;;;;;;3.50;1.87;;;;;;;16.46;33.40;100168.38;1780124;80;21085;-44
2022/05/01 08:50:39;;;;;;;2.98;2.10;;;;;;;16.48;33.25;100164.11;1747221;81;20957;-44
2022/05/01 08:53:07;;;;;;;3.92;2.37;;;;;;;16.60;33.27;100163.06;1748702;81;21495;-44
2022/05/01 08:55:35;;;;;;;2.92;2.00;;;;;;;16.77;32.44;100161.61;1748697;81;21639;-44
2022/05/01 08:58:01;;;;;;;6.65;2.77;;;;;;;17.04;32.71;100158.06;1748823;82;21088;-44
2022/05/01 09:00:28;;;;;;;3.72;2.10;;;;;;;17.33;33.07;100154.30;1748978;81;21199;-44
2022/05/01 09:02:56;;;;;;;3.33;2.12;;;;;;;17.58;32.30;100152.41;1749060;81;20958;-44
2022/05/01 09:05:23;;;;;;;3.02;2.10;;;;;;;17.66;31.65;100148.56;1749138;81;20891;-44
2022/05/01 09:07:50;;;;;;;4.72;2.00;;;;;;;17.77;31.67;100148.56;1749111;82;21061;-44
2022/05/01 09:10:17;;;;;;;3.98;1.82;;;;;;;17.90;30.50;100147.05;1749072;82;20973;-44
2022/05/01 09:12:50;;;;;;;3.20;2.00;;;;;;;17.98;29.95;100140.97;1755990;81;23126;-44
2022/05/01 09:15:41;;;;;;;2.27;1.70;;;;;;;18.02;29.82;100141.75;1756851;81;21473;-44
2022/05/01 09:18:10;;;;;;;3.87;1.80;;;;;;;18.13;30.44;100137.06;1756806;81;21092;-44
2022/05/01 09:20:39;;;;;;;2.85;1.60;;;;;;;18.35;29.16;100130.39;1756983;81;21037;-44
2022/05/01 09:23:07;;;;;;;4.00;1.85;;;;;;;18.62;28.45;100128.84;1754235;81;20993;-44
2022/05/01 09:25:34;;;;;;;4.78;1.55;;;;;;;18.75;26.47;100132.54;1756711;81;23089;-44
2022/05/01 09:28:22;;;;;;;3.08;1.60;;;;;;;18.84;26.30;100133.70;1756837;81;21527;-44
2022/05/01 09:30:50;;;;;;;3.17;1.70;;;;;;;19.02;26.11;100124.84;1757308;81;21522;-44
2022/05/01 09:33:21;;;;;;;2.17;1.47;;;;;;;19.25;25.69;100122.98;1756803;81;20961;-44
2022/05/01 09:35:48;;;;;;;2.55;1.27;;;;;;;19.35;26.28;100120.78;1757046;81;21012;-44
2022/05/01 09:38:21;;;;;;;2.52;1.60;;;;;;;19.45;25.49;100124.09;1730993;81;21131;-44
2022/05/01 09:40:58;;;;;;;2.05;1.57;;;;;;;19.53;25.52;100117.95;1717454;83;20968;-44
2022/05/01 09:43:35;;;;;;;3.02;1.70;;;;;;;19.56;25.79;100118.52;1717149;83;21530;-44
2022/05/01 09:46:16;;;;;;;2.17;1.50;;;;;;;19.58;25.41;100122.25;1717514;83;20905;-44
2022/05/01 09:49:13;;;;;;;2.50;1.65;;;;;;;19.61;24.89;100109.84;1717348;83;21580;-44
2022/05/01 09:51:46;;;;;;;5.17;1.80;;;;;;;19.70;25.75;100117.67;1716767;83;21255;-43
2022/05/01 09:54:23;;;;;;;2.62;1.52;;;;;;;19.67;25.50;100115.13;1717317;83;20921;-43
2022/05/01 09:57:00;;;;;;;3.65;1.90;;;;;;;19.63;25.08;100115.74;1717523;83;21004;-43
2022/05/01 09:59:29;;;;;;;2.17;1.62;;;;;;;19.49;26.20;100117.20;1717354;83;21024;-43
2022/05/01 10:02:05;;;;;;;2.42;1.82;;;;;;;19.41;26.67;100117.02;1717580;83;21056;-43
2022/05/01 10:04:34;;;;;;;5.20;1.90;;;;;;;19.43;26.41;100111.30;1717131;83;21323;-43
2022/05/01 10:07:01;;;;;;;3.77;2.02;;;;;;;19.35;26.99;100108.99;1717258;83;21000;-43
2022/05/01 10:09:32;;;;;;;3.90;2.08;;;;;;;19.27;27.12;100108.81;1717128;83;21059;-44
2022/05/01 10:12:07;;;;;;;4.53;1.95;;;;;;;19.17;27.21;100104.92;1725548;82;20965;-44
2022/05/01 10:14:36;;;;;;;2.92;1.87;;;;;;;19.05;27.04;100105.37;1736179;82;21029;-44
2022/05/01 10:17:06;;;;;;;3.92;1.80;;;;;;;18.93;27.16;100104.42;1736319;82;21508;-44
2022/05/01 10:19:33;;;;;;;2.65;1.80;;;;;;;18.88;27.96;100110.36;1713495;82;21029;-44
2022/05/01 10:22:00;;;;;;;3.40;2.02;;;;;;;18.88;28.27;100104.24;1736299;82;21014;-44
2022/05/01 10:24:28;;;;;;;2.33;1.82;;;;;;;18.80;27.98;100108.20;1736258;82;21622;-44
2022/05/01 10:27:19;;;;;;;3.65;1.98;;;;;;;18.71;27.67;100104.30;1736332;82;21006;-44
2022/05/01 10:33:17;;;;;;;5.25;1.80;;;;;;;18.66;27.03;100095.29;1736345;82;21387;-44
2022/05/01 10:36:01;;;;;;;4.78;1.80;;;;;;;18.75;26.77;100096.25;1736254;82;21016;-44
2022/05/01 10:38:49;;;;;;;3.15;2.10;;;;;;;18.71;26.49;100088.61;1721700;82;21004;-45
2022/05/01 10:41:17;;;;;;;3.67;2.17;;;;;;;18.69;27.33;100088.83;1736074;82;21077;-44
2022/05/01 10:43:57;;;;;;;3.42;1.90;;;;;;;18.72;28.53;100086.64;1736569;82;21071;-44
2022/05/01 10:46:32;;;;;;;2.60;1.85;;;;;;;18.86;29.27;100080.52;1736225;82;20961;-44
2022/05/01 10:49:05;;;;;;;3.27;1.92;;;;;;;19.16;28.83;100083.36;1736387;82;20997;-44
2022/05/01 10:51:44;;;;;;;2.77;1.87;;;;;;;19.62;27.72;100080.38;1714469;82;21024;-44
2022/05/01 10:54:19;;;;;;;3.90;2.00;;;;;;;20.01;27.03;100069.88;1736429;82;21025;-44
2022/05/01 10:56:51;;;;;;;2.75;1.98;;;;;;;20.46;27.14;100073.44;1736252;82;21564;-44
2022/05/01 10:59:38;;;;;;;3.92;1.80;;;;;;;20.62;26.35;100070.14;1736555;82;21021;-44
2022/05/01 11:02:27;;;;;;;3.45;1.82;;;;;;;20.62;25.54;100074.27;1736279;82;21013;-44
2022/05/01 11:04:53;;;;;;;2.60;1.98;;;;;;;20.45;24.80;100069.70;1735803;82;20973;-44
2022/05/01 11:07:21;;;;;;;2.25;1.72;;;;;;;20.16;24.52;100072.70;1736343;82;21031;-44
2022/05/01 11:09:49;;;;;;;2.40;2.00;;;;;;;19.94;24.97;100069.33;1736530;82;21105;-44
2022/05/01 11:12:26;;;;;;;2.67;1.80;;;;;;;20.02;25.90;100067.91;1747994;81;21011;-44
2022/05/01 11:15:09;;;;;;;2.50;1.87;;;;;;;20.34;25.94;100062.92;1762303;81;21517;-44
2022/05/01 11:17:44;;;;;;;2.87;1.87;;;;;;;20.91;24.86;100065.09;1763230;81;21567;-44
2022/05/01 11:20:25;;;;;;;2.58;1.77;;;;;;;21.45;24.05;100061.83;1763413;81;21005;-44
2022/05/01 11:22:53;;;;;;;2.98;1.75;;;;;;;21.73;23.54;100053.16;1763409;81;21226;-44
2022/05/01 11:25:40;;;;;;;1.70;1.60;;;;;;;21.70;23.36;100052.59;1733501;81;20948;-44
2022/05/01 11:28:07;;;;;;;3.98;1.80;;;;;;;21.48;23.68;100041.11;1763771;81;21028;-44
2022/05/01 11:30:38;;;;;;;4.10;1.80;;;;;;;21.13;25.53;100043.75;1763381;81;21590;-44
2022/05/01 11:33:10;;;;;;;3.22;1.75;;;;;;;20.90;25.55;100043.63;1763151;81;21001;-44
2022/05/01 11:36:01;;;;;;;2.37;1.67;;;;;;;20.68;25.45;100043.67;1758298;81;21229;-44
2022/05/01 11:38:46;;;;;;;2.10;1.65;;;;;;;20.64;25.41;100037.43;1763521;81;21562;-44
2022/05/01 11:41:12;;;;;;;2.98;1.70;;;;;;;20.91;25.62;100043.82;1763551;81;20972;-44
2022/05/01 11:43:40;;;;;;;2.47;1.85;;;;;;;21.39;24.57;100029.03;1763313;81;21583;-44
2022/05/01 11:46:17;;;;;;;2.08;1.50;;;;;;;21.68;24.03;100026.03;1763693;81;21502;-44
2022/05/01 11:48:43;;;;;;;2.60;1.55;;;;;;;21.92;24.48;100024.84;1763369;81;21087;-45
2022/05/01 11:51:10;;;;;;;2.85;1.80;;;;;;;22.05;24.37;100027.80;1733341;81;21447;-45
2022/05/01 11:53:37;;;;;;;2.90;1.92;;;;;;;22.06;23.34;100026.02;1763296;81;22131;-45
2022/05/01 12:04:34;;;;;;;2.22;1.52;;;;;;;22.73;23.65;100021.83;1763415;81;21570;-45